South Chase, Wisconsin
Current Conditions -  °F | °C
As of 3:53 AM on Friday 31 Oct 2014 (Local Time) from KGRB Reporting Station
Overcast Overcast  
Wind Chill: 27°   Ceiling: 3600
Heat Index: 37°   Visibility: 10mi
Dew Point: 30°   Wind: 17mph
Humidity: 76%   Direction: 350°N
Pressure: 30.08"   Gusts: 30mph
Location:  44.6594°N, 88.2945°W
Report Text: KGRB 310853Z AUTO 35015G26KT 10SM SCT026 BKN036 OVC043 03/M01 A3008 RMK AO2 PK WND 36026/0851 RAE39UPB24E30 SLP192 P0000 60000 T00281011 53018 $
Loading
Personal Weather Stations






























Interactive Weather Map
Tropical Storm Tracking
New forecast layout! Learn more

10-Day Weather Forecast

Advertisements
Track Severe Weather on mobile